sensor_id;sensor_type;location;lat;lon;timestamp;P1;durP1;ratioP1;P2;durP2;ratioP2
11346;SDS011;5728;42.722;23.258;2022-11-15T00:01:55;37.17;;;22.03;;
11346;SDS011;5728;42.722;23.258;2022-11-15T00:04:23;38.23;;;21.43;;
11346;SDS011;5728;42.722;23.258;2022-11-15T00:06:50;48.83;;;24.33;;
11346;SDS011;5728;42.722;23.258;2022-11-15T00:09:16;46.50;;;24.57;;
11346;SDS011;5728;42.722;23.258;2022-11-15T00:11:43;44.83;;;24.03;;
11346;SDS011;5728;42.722;23.258;2022-11-15T00:14:10;46.50;;;24.63;;
11346;SDS011;5728;42.722;23.258;2022-11-15T00:16:36;40.40;;;22.70;;
11346;SDS011;5728;42.722;23.258;2022-11-15T00:19:03;36.67;;;22.63;;
11346;SDS011;5728;42.722;23.258;2022-11-15T00:21:31;35.77;;;22.03;;
11346;SDS011;5728;42.722;23.258;2022-11-15T00:23:58;40.50;;;22.43;;
11346;SDS011;5728;42.722;23.258;2022-11-15T00:26:24;38.23;;;23.13;;
11346;SDS011;5728;42.722;23.258;2022-11-15T00:28:51;43.90;;;21.47;;
11346;SDS011;5728;42.722;23.258;2022-11-15T00:31:18;40.57;;;22.13;;
11346;SDS011;5728;42.722;23.258;2022-11-15T00:33:45;41.87;;;23.03;;
11346;SDS011;5728;42.722;23.258;2022-11-15T00:36:12;46.80;;;24.57;;
11346;SDS011;5728;42.722;23.258;2022-11-15T00:38:40;38.67;;;23.07;;
11346;SDS011;5728;42.722;23.258;2022-11-15T00:41:07;43.30;;;23.03;;
11346;SDS011;5728;42.722;23.258;2022-11-15T00:43:34;40.30;;;23.43;;
11346;SDS011;5728;42.722;23.258;2022-11-15T00:46:01;45.00;;;22.47;;
11346;SDS011;5728;42.722;23.258;2022-11-15T00:48:28;36.60;;;22.27;;
11346;SDS011;5728;42.722;23.258;2022-11-15T00:50:56;39.57;;;22.07;;
11346;SDS011;5728;42.722;23.258;2022-11-15T00:53:23;38.83;;;22.40;;
11346;SDS011;5728;42.722;23.258;2022-11-15T00:55:51;43.03;;;21.60;;
11346;SDS011;5728;42.722;23.258;2022-11-15T00:58:18;43.75;;;26.38;;
11346;SDS011;5728;42.722;23.258;2022-11-15T01:00:45;42.23;;;24.20;;
11346;SDS011;5728;42.722;23.258;2022-11-15T01:03:11;57.40;;;28.90;;
11346;SDS011;5728;42.722;23.258;2022-11-15T01:05:38;47.80;;;26.97;;
11346;SDS011;5728;42.722;23.258;2022-11-15T01:08:05;38.63;;;23.07;;
11346;SDS011;5728;42.722;23.258;2022-11-15T01:10:32;44.07;;;24.37;;
11346;SDS011;5728;42.722;23.258;2022-11-15T01:13:00;47.53;;;26.30;;
11346;SDS011;5728;42.722;23.258;2022-11-15T01:15:26;43.23;;;22.67;;
11346;SDS011;5728;42.722;23.258;2022-11-15T01:17:53;49.53;;;23.70;;
11346;SDS011;5728;42.722;23.258;2022-11-15T01:20:20;39.83;;;24.20;;
11346;SDS011;5728;42.722;23.258;2022-11-15T01:22:46;46.93;;;25.63;;
11346;SDS011;5728;42.722;23.258;2022-11-15T01:25:13;48.20;;;25.90;;
11346;SDS011;5728;42.722;23.258;2022-11-15T01:27:40;48.23;;;23.67;;
11346;SDS011;5728;42.722;23.258;2022-11-15T01:30:08;39.40;;;23.97;;
11346;SDS011;5728;42.722;23.258;2022-11-15T01:32:35;47.17;;;25.27;;
11346;SDS011;5728;42.722;23.258;2022-11-15T01:35:02;39.93;;;22.43;;
11346;SDS011;5728;42.722;23.258;2022-11-15T01:37:29;46.47;;;24.27;;
11346;SDS011;5728;42.722;23.258;2022-11-15T01:39:56;40.70;;;22.70;;
11346;SDS011;5728;42.722;23.258;2022-11-15T01:42:23;39.83;;;22.77;;
11346;SDS011;5728;42.722;23.258;2022-11-15T01:44:50;42.27;;;23.50;;
11346;SDS011;5728;42.722;23.258;2022-11-15T01:47:20;40.13;;;22.37;;
11346;SDS011;5728;42.722;23.258;2022-11-15T01:49:52;43.50;;;25.53;;
11346;SDS011;5728;42.722;23.258;2022-11-15T01:52:23;43.97;;;24.27;;
11346;SDS011;5728;42.722;23.258;2022-11-15T01:54:53;43.23;;;24.20;;
11346;SDS011;5728;42.722;23.258;2022-11-15T01:57:24;45.57;;;24.40;;
11346;SDS011;5728;42.722;23.258;2022-11-15T01:59:51;45.20;;;23.90;;
11346;SDS011;5728;42.722;23.258;2022-11-15T02:02:17;43.87;;;24.70;;
11346;SDS011;5728;42.722;23.258;2022-11-15T02:04:46;39.67;;;21.33;;
11346;SDS011;5728;42.722;23.258;2022-11-15T02:07:14;47.43;;;24.07;;
11346;SDS011;5728;42.722;23.258;2022-11-15T02:09:43;44.93;;;24.97;;
11346;SDS011;5728;42.722;23.258;2022-11-15T02:12:11;48.87;;;24.83;;
11346;SDS011;5728;42.722;23.258;2022-11-15T02:14:44;43.07;;;23.00;;
11346;SDS011;5728;42.722;23.258;2022-11-15T02:17:21;44.03;;;24.27;;
11346;SDS011;5728;42.722;23.258;2022-11-15T02:20:08;35.30;;;22.47;;
11346;SDS011;5728;42.722;23.258;2022-11-15T02:22:55;43.90;;;23.83;;
11346;SDS011;5728;42.722;23.258;2022-11-15T02:25:41;38.63;;;22.23;;
11346;SDS011;5728;42.722;23.258;2022-11-15T02:28:36;39.03;;;21.63;;
11346;SDS011;5728;42.722;23.258;2022-11-15T02:31:16;38.53;;;22.47;;
11346;SDS011;5728;42.722;23.258;2022-11-15T02:33:53;43.90;;;23.03;;
11346;SDS011;5728;42.722;23.258;2022-11-15T02:36:30;41.97;;;24.57;;
11346;SDS011;5728;42.722;23.258;2022-11-15T02:39:04;47.50;;;23.10;;
11346;SDS011;5728;42.722;23.258;2022-11-15T02:41:39;52.33;;;24.87;;
11346;SDS011;5728;42.722;23.258;2022-11-15T02:44:12;40.83;;;24.03;;
11346;SDS011;5728;42.722;23.258;2022-11-15T02:46:46;38.93;;;22.40;;
11346;SDS011;5728;42.722;23.258;2022-11-15T02:49:34;41.70;;;22.23;;
11346;SDS011;5728;42.722;23.258;2022-11-15T02:52:03;35.00;;;21.50;;
11346;SDS011;5728;42.722;23.258;2022-11-15T02:59:43;41.37;;;24.40;;
11346;SDS011;5728;42.722;23.258;2022-11-15T03:07:42;36.10;;;21.50;;
11346;SDS011;5728;42.722;23.258;2022-11-15T03:10:16;36.13;;;22.20;;
11346;SDS011;5728;42.722;23.258;2022-11-15T03:12:48;37.50;;;20.97;;
11346;SDS011;5728;42.722;23.258;2022-11-15T03:15:23;45.30;;;22.67;;
11346;SDS011;5728;42.722;23.258;2022-11-15T03:17:57;39.17;;;21.40;;
11346;SDS011;5728;42.722;23.258;2022-11-15T03:20:28;41.60;;;23.40;;
11346;SDS011;5728;42.722;23.258;2022-11-15T03:22:57;43.37;;;23.23;;
11346;SDS011;5728;42.722;23.258;2022-11-15T03:25:29;46.80;;;23.57;;
11346;SDS011;5728;42.722;23.258;2022-11-15T03:28:00;55.20;;;23.90;;
11346;SDS011;5728;42.722;23.258;2022-11-15T04:45:10;75.20;;;36.70;;
11346;SDS011;5728;42.722;23.258;2022-11-15T04:47:36;94.40;;;38.30;;
11346;SDS011;5728;42.722;23.258;2022-11-15T04:50:03;129.33;;;46.43;;
11346;SDS011;5728;42.722;23.258;2022-11-15T04:52:31;121.77;;;42.67;;
11346;SDS011;5728;42.722;23.258;2022-11-15T04:55:04;95.13;;;39.20;;
11346;SDS011;5728;42.722;23.258;2022-11-15T04:57:31;116.47;;;39.83;;
11346;SDS011;5728;42.722;23.258;2022-11-15T05:00:02;123.03;;;39.13;;
11346;SDS011;5728;42.722;23.258;2022-11-15T05:02:30;99.37;;;36.33;;
11346;SDS011;5728;42.722;23.258;2022-11-15T05:05:10;83.07;;;35.73;;
11346;SDS011;5728;42.722;23.258;2022-11-15T05:07:37;87.07;;;36.93;;
11346;SDS011;5728;42.722;23.258;2022-11-15T05:10:06;66.40;;;31.23;;
11346;SDS011;5728;42.722;23.258;2022-11-15T05:12:33;82.53;;;33.93;;
11346;SDS011;5728;42.722;23.258;2022-11-15T05:14:59;74.10;;;30.43;;
11346;SDS011;5728;42.722;23.258;2022-11-15T05:17:26;90.97;;;33.20;;
11346;SDS011;5728;42.722;23.258;2022-11-15T05:19:53;83.07;;;31.63;;
11346;SDS011;5728;42.722;23.258;2022-11-15T05:22:19;67.80;;;26.67;;
11346;SDS011;5728;42.722;23.258;2022-11-15T05:24:46;77.40;;;28.50;;
11346;SDS011;5728;42.722;23.258;2022-11-15T05:27:14;70.43;;;27.93;;
11346;SDS011;5728;42.722;23.258;2022-11-15T05:29:41;75.23;;;27.43;;
11346;SDS011;5728;42.722;23.258;2022-11-15T05:32:08;79.70;;;30.27;;
11346;SDS011;5728;42.722;23.258;2022-11-15T05:34:35;115.10;;;31.57;;
11346;SDS011;5728;42.722;23.258;2022-11-15T05:37:02;90.87;;;31.47;;
11346;SDS011;5728;42.722;23.258;2022-11-15T05:39:30;97.90;;;32.00;;
11346;SDS011;5728;42.722;23.258;2022-11-15T05:41:59;91.20;;;30.83;;
11346;SDS011;5728;42.722;23.258;2022-11-15T05:44:32;98.27;;;31.73;;
11346;SDS011;5728;42.722;23.258;2022-11-15T05:47:00;117.73;;;31.60;;
11346;SDS011;5728;42.722;23.258;2022-11-15T05:49:30;82.77;;;31.40;;
11346;SDS011;5728;42.722;23.258;2022-11-15T05:51:59;73.00;;;29.67;;
11346;SDS011;5728;42.722;23.258;2022-11-15T05:54:26;110.57;;;31.83;;
11346;SDS011;5728;42.722;23.258;2022-11-15T05:56:53;79.97;;;30.33;;
11346;SDS011;5728;42.722;23.258;2022-11-15T05:59:21;85.53;;;29.87;;
11346;SDS011;5728;42.722;23.258;2022-11-15T06:01:49;92.00;;;31.83;;
11346;SDS011;5728;42.722;23.258;2022-11-15T06:04:16;96.63;;;30.70;;
11346;SDS011;5728;42.722;23.258;2022-11-15T06:06:42;103.30;;;30.43;;
11346;SDS011;5728;42.722;23.258;2022-11-15T06:09:09;72.43;;;28.47;;
11346;SDS011;5728;42.722;23.258;2022-11-15T06:11:36;79.53;;;30.10;;
11346;SDS011;5728;42.722;23.258;2022-11-15T06:14:02;77.97;;;27.23;;
11346;SDS011;5728;42.722;23.258;2022-11-15T06:16:29;66.43;;;25.00;;
11346;SDS011;5728;42.722;23.258;2022-11-15T06:18:57;71.33;;;27.07;;
11346;SDS011;5728;42.722;23.258;2022-11-15T06:21:24;94.17;;;27.43;;
11346;SDS011;5728;42.722;23.258;2022-11-15T06:23:52;84.40;;;28.17;;
11346;SDS011;5728;42.722;23.258;2022-11-15T06:26:19;62.97;;;26.17;;
11346;SDS011;5728;42.722;23.258;2022-11-15T06:28:46;131.00;;;28.87;;
11346;SDS011;5728;42.722;23.258;2022-11-15T06:31:13;126.43;;;31.47;;
11346;SDS011;5728;42.722;23.258;2022-11-15T06:33:40;141.00;;;30.03;;
11346;SDS011;5728;42.722;23.258;2022-11-15T06:36:09;72.70;;;29.33;;
11346;SDS011;5728;42.722;23.258;2022-11-15T06:38:38;150.47;;;32.10;;
11346;SDS011;5728;42.722;23.258;2022-11-15T06:41:06;131.93;;;29.70;;
11346;SDS011;5728;42.722;23.258;2022-11-15T06:43:34;115.83;;;31.07;;
11346;SDS011;5728;42.722;23.258;2022-11-15T06:46:01;125.60;;;31.60;;
11346;SDS011;5728;42.722;23.258;2022-11-15T06:48:29;167.77;;;34.17;;
11346;SDS011;5728;42.722;23.258;2022-11-15T06:50:57;168.43;;;35.63;;
11346;SDS011;5728;42.722;23.258;2022-11-15T06:53:27;136.70;;;40.38;;
11346;SDS011;5728;42.722;23.258;2022-11-15T06:55:57;150.63;;;35.23;;
11346;SDS011;5728;42.722;23.258;2022-11-15T06:58:25;100.63;;;35.73;;
11346;SDS011;5728;42.722;23.258;2022-11-15T07:00:52;152.00;;;37.63;;
11346;SDS011;5728;42.722;23.258;2022-11-15T07:03:19;94.60;;;33.67;;
11346;SDS011;5728;42.722;23.258;2022-11-15T07:05:50;148.83;;;38.07;;
11346;SDS011;5728;42.722;23.258;2022-11-15T07:08:18;73.87;;;32.80;;
11346;SDS011;5728;42.722;23.258;2022-11-15T07:10:46;85.07;;;28.63;;
11346;SDS011;5728;42.722;23.258;2022-11-15T07:13:13;83.17;;;32.20;;
11346;SDS011;5728;42.722;23.258;2022-11-15T07:15:40;89.10;;;31.43;;
11346;SDS011;5728;42.722;23.258;2022-11-15T07:18:07;92.43;;;34.77;;
11346;SDS011;5728;42.722;23.258;2022-11-15T07:20:34;114.10;;;40.17;;
11346;SDS011;5728;42.722;23.258;2022-11-15T07:23:01;96.97;;;37.47;;
11346;SDS011;5728;42.722;23.258;2022-11-15T07:25:28;131.80;;;44.50;;
11346;SDS011;5728;42.722;23.258;2022-11-15T07:27:57;96.60;;;38.00;;
11346;SDS011;5728;42.722;23.258;2022-11-15T07:30:24;81.40;;;36.40;;
11346;SDS011;5728;42.722;23.258;2022-11-15T07:32:52;104.10;;;34.93;;
11346;SDS011;5728;42.722;23.258;2022-11-15T07:35:20;101.17;;;34.37;;
11346;SDS011;5728;42.722;23.258;2022-11-15T07:37:52;79.90;;;32.50;;
11346;SDS011;5728;42.722;23.258;2022-11-15T07:40:20;76.90;;;32.77;;
11346;SDS011;5728;42.722;23.258;2022-11-15T07:42:47;64.20;;;31.37;;
11346;SDS011;5728;42.722;23.258;2022-11-15T07:45:22;105.30;;;31.33;;
11346;SDS011;5728;42.722;23.258;2022-11-15T07:47:50;110.47;;;31.23;;
11346;SDS011;5728;42.722;23.258;2022-11-15T07:50:18;64.37;;;30.20;;
11346;SDS011;5728;42.722;23.258;2022-11-15T07:52:45;83.47;;;33.67;;
11346;SDS011;5728;42.722;23.258;2022-11-15T07:55:12;81.83;;;36.03;;
11346;SDS011;5728;42.722;23.258;2022-11-15T07:57:38;78.17;;;34.30;;
11346;SDS011;5728;42.722;23.258;2022-11-15T08:00:06;82.90;;;35.20;;
11346;SDS011;5728;42.722;23.258;2022-11-15T08:02:34;88.13;;;34.30;;
11346;SDS011;5728;42.722;23.258;2022-11-15T08:05:01;79.57;;;31.47;;
11346;SDS011;5728;42.722;23.258;2022-11-15T08:07:29;79.90;;;27.60;;
11346;SDS011;5728;42.722;23.258;2022-11-15T08:09:56;71.87;;;28.03;;
11346;SDS011;5728;42.722;23.258;2022-11-15T08:12:23;106.93;;;32.10;;
11346;SDS011;5728;42.722;23.258;2022-11-15T08:14:50;79.40;;;32.97;;
11346;SDS011;5728;42.722;23.258;2022-11-15T08:17:16;97.50;;;31.63;;
11346;SDS011;5728;42.722;23.258;2022-11-15T08:19:45;82.07;;;29.70;;
11346;SDS011;5728;42.722;23.258;2022-11-15T08:22:11;71.20;;;30.43;;
11346;SDS011;5728;42.722;23.258;2022-11-15T08:24:38;82.03;;;31.70;;
11346;SDS011;5728;42.722;23.258;2022-11-15T08:27:05;80.13;;;34.13;;
11346;SDS011;5728;42.722;23.258;2022-11-15T08:29:39;86.87;;;31.73;;
11346;SDS011;5728;42.722;23.258;2022-11-15T08:32:06;62.97;;;31.93;;
11346;SDS011;5728;42.722;23.258;2022-11-15T08:34:33;85.97;;;33.17;;
11346;SDS011;5728;42.722;23.258;2022-11-15T08:37:01;76.77;;;33.37;;
11346;SDS011;5728;42.722;23.258;2022-11-15T08:39:28;71.07;;;32.43;;
11346;SDS011;5728;42.722;23.258;2022-11-15T08:41:55;74.20;;;34.63;;
11346;SDS011;5728;42.722;23.258;2022-11-15T08:44:22;87.57;;;36.43;;
11346;SDS011;5728;42.722;23.258;2022-11-15T08:46:49;78.77;;;36.13;;
11346;SDS011;5728;42.722;23.258;2022-11-15T08:49:16;98.47;;;38.40;;
11346;SDS011;5728;42.722;23.258;2022-11-15T08:51:44;94.63;;;38.67;;
11346;SDS011;5728;42.722;23.258;2022-11-15T08:54:12;91.20;;;37.03;;
11346;SDS011;5728;42.722;23.258;2022-11-15T08:56:39;85.63;;;36.53;;
11346;SDS011;5728;42.722;23.258;2022-11-15T08:59:06;79.97;;;38.07;;
11346;SDS011;5728;42.722;23.258;2022-11-15T09:01:33;83.97;;;38.30;;
11346;SDS011;5728;42.722;23.258;2022-11-15T09:04:00;90.13;;;42.47;;
11346;SDS011;5728;42.722;23.258;2022-11-15T09:06:26;89.40;;;41.17;;
11346;SDS011;5728;42.722;23.258;2022-11-15T09:08:53;90.37;;;40.47;;
11346;SDS011;5728;42.722;23.258;2022-11-15T09:11:21;116.18;;;51.88;;
11346;SDS011;5728;42.722;23.258;2022-11-15T09:13:48;106.50;;;47.20;;
11346;SDS011;5728;42.722;23.258;2022-11-15T09:16:16;108.97;;;46.87;;
11346;SDS011;5728;42.722;23.258;2022-11-15T09:18:42;112.53;;;47.33;;
11346;SDS011;5728;42.722;23.258;2022-11-15T09:21:09;102.13;;;45.97;;
11346;SDS011;5728;42.722;23.258;2022-11-15T09:23:36;104.30;;;47.63;;
11346;SDS011;5728;42.722;23.258;2022-11-15T09:26:04;112.77;;;47.57;;
11346;SDS011;5728;42.722;23.258;2022-11-15T09:28:33;105.00;;;48.83;;
11346;SDS011;5728;42.722;23.258;2022-11-15T09:31:01;112.40;;;47.70;;
11346;SDS011;5728;42.722;23.258;2022-11-15T09:33:29;111.10;;;49.77;;
11346;SDS011;5728;42.722;23.258;2022-11-15T09:35:59;112.07;;;51.33;;
11346;SDS011;5728;42.722;23.258;2022-11-15T09:38:27;127.63;;;55.77;;
11346;SDS011;5728;42.722;23.258;2022-11-15T09:40:57;120.47;;;51.80;;
11346;SDS011;5728;42.722;23.258;2022-11-15T09:43:45;122.07;;;52.17;;
11346;SDS011;5728;42.722;23.258;2022-11-15T09:46:22;103.07;;;48.73;;
11346;SDS011;5728;42.722;23.258;2022-11-15T09:48:58;116.50;;;49.70;;
11346;SDS011;5728;42.722;23.258;2022-11-15T09:51:28;114.90;;;52.80;;
11346;SDS011;5728;42.722;23.258;2022-11-15T09:53:58;108.33;;;48.83;;
11346;SDS011;5728;42.722;23.258;2022-11-15T09:56:31;99.43;;;48.77;;
11346;SDS011;5728;42.722;23.258;2022-11-15T09:59:05;112.30;;;49.90;;
11346;SDS011;5728;42.722;23.258;2022-11-15T10:01:53;97.27;;;48.73;;
11346;SDS011;5728;42.722;23.258;2022-11-15T10:04:26;116.87;;;47.90;;
11346;SDS011;5728;42.722;23.258;2022-11-15T10:06:55;102.67;;;48.30;;
11346;SDS011;5728;42.722;23.258;2022-11-15T10:09:29;115.40;;;50.23;;
11346;SDS011;5728;42.722;23.258;2022-11-15T10:12:02;118.80;;;51.93;;
11346;SDS011;5728;42.722;23.258;2022-11-15T10:14:30;112.43;;;50.20;;
11346;SDS011;5728;42.722;23.258;2022-11-15T10:17:01;130.90;;;52.67;;
11346;SDS011;5728;42.722;23.258;2022-11-15T10:19:50;131.53;;;55.00;;
11346;SDS011;5728;42.722;23.258;2022-11-15T10:22:25;120.80;;;52.90;;
11346;SDS011;5728;42.722;23.258;2022-11-15T10:25:00;103.67;;;48.87;;
11346;SDS011;5728;42.722;23.258;2022-11-15T10:27:39;106.03;;;49.57;;
11346;SDS011;5728;42.722;23.258;2022-11-15T10:30:11;109.23;;;51.53;;
11346;SDS011;5728;42.722;23.258;2022-11-15T10:32:40;97.17;;;49.03;;
11346;SDS011;5728;42.722;23.258;2022-11-15T10:35:19;117.93;;;55.00;;
11346;SDS011;5728;42.722;23.258;2022-11-15T10:37:49;103.90;;;52.07;;
11346;SDS011;5728;42.722;23.258;2022-11-15T10:40:17;113.70;;;51.20;;
11346;SDS011;5728;42.722;23.258;2022-11-15T10:42:45;103.63;;;50.83;;
11346;SDS011;5728;42.722;23.258;2022-11-15T10:45:27;107.37;;;50.43;;
11346;SDS011;5728;42.722;23.258;2022-11-15T10:48:18;105.43;;;52.60;;
11346;SDS011;5728;42.722;23.258;2022-11-15T10:50:48;100.53;;;50.13;;
11346;SDS011;5728;42.722;23.258;2022-11-15T10:58:19;98.37;;;52.10;;
11346;SDS011;5728;42.722;23.258;2022-11-15T11:06:06;83.90;;;46.60;;
11346;SDS011;5728;42.722;23.258;2022-11-15T11:08:35;88.80;;;44.30;;
11346;SDS011;5728;42.722;23.258;2022-11-15T11:16:02;74.80;;;44.80;;
11346;SDS011;5728;42.722;23.258;2022-11-15T11:18:48;68.70;;;40.70;;
11346;SDS011;5728;42.722;23.258;2022-11-15T11:21:25;84.90;;;41.85;;
11346;SDS011;5728;42.722;23.258;2022-11-15T11:24:03;73.33;;;42.07;;
11346;SDS011;5728;42.722;23.258;2022-11-15T11:44:32;73.47;;;42.43;;
11346;SDS011;5728;42.722;23.258;2022-11-15T11:47:06;68.37;;;40.03;;
11346;SDS011;5728;42.722;23.258;2022-11-15T11:49:37;76.37;;;38.80;;
11346;SDS011;5728;42.722;23.258;2022-11-15T11:52:11;70.63;;;41.43;;
11346;SDS011;5728;42.722;23.258;2022-11-15T11:54:46;69.07;;;38.70;;
11346;SDS011;5728;42.722;23.258;2022-11-15T11:57:25;69.47;;;40.60;;
11346;SDS011;5728;42.722;23.258;2022-11-15T12:00:01;77.17;;;42.13;;
11346;SDS011;5728;42.722;23.258;2022-11-15T12:02:33;79.97;;;42.63;;
11346;SDS011;5728;42.722;23.258;2022-11-15T12:05:08;75.40;;;42.43;;
11346;SDS011;5728;42.722;23.258;2022-11-15T12:07:39;79.10;;;42.63;;
11346;SDS011;5728;42.722;23.258;2022-11-15T12:10:12;78.60;;;42.10;;
11346;SDS011;5728;42.722;23.258;2022-11-15T12:12:47;74.57;;;43.30;;
11346;SDS011;5728;42.722;23.258;2022-11-15T12:15:19;87.60;;;45.30;;
11346;SDS011;5728;42.722;23.258;2022-11-15T12:22:47;76.43;;;42.27;;
11346;SDS011;5728;42.722;23.258;2022-11-15T12:27:50;76.13;;;45.27;;
11346;SDS011;5728;42.722;23.258;2022-11-15T12:30:21;77.97;;;46.47;;
11346;SDS011;5728;42.722;23.258;2022-11-15T12:32:51;76.60;;;45.10;;
11346;SDS011;5728;42.722;23.258;2022-11-15T12:35:23;72.37;;;41.67;;
11346;SDS011;5728;42.722;23.258;2022-11-15T12:37:53;71.53;;;42.80;;
11346;SDS011;5728;42.722;23.258;2022-11-15T12:40:22;77.03;;;41.23;;
11346;SDS011;5728;42.722;23.258;2022-11-15T12:46:10;73.07;;;40.53;;
11346;SDS011;5728;42.722;23.258;2022-11-15T12:48:47;79.17;;;40.53;;
11346;SDS011;5728;42.722;23.258;2022-11-15T12:51:19;68.95;;;38.83;;
11346;SDS011;5728;42.722;23.258;2022-11-15T12:53:47;71.33;;;40.43;;
11346;SDS011;5728;42.722;23.258;2022-11-15T12:56:21;69.07;;;39.77;;
11346;SDS011;5728;42.722;23.258;2022-11-15T12:58:49;67.13;;;39.63;;
11346;SDS011;5728;42.722;23.258;2022-11-15T13:04:25;71.43;;;40.13;;
11346;SDS011;5728;42.722;23.258;2022-11-15T13:06:54;88.47;;;45.93;;
11346;SDS011;5728;42.722;23.258;2022-11-15T13:15:36;73.83;;;39.07;;
11346;SDS011;5728;42.722;23.258;2022-11-15T13:21:20;65.33;;;36.77;;
11346;SDS011;5728;42.722;23.258;2022-11-15T13:24:10;58.07;;;36.40;;
11346;SDS011;5728;42.722;23.258;2022-11-15T13:26:40;72.77;;;37.37;;
11346;SDS011;5728;42.722;23.258;2022-11-15T13:29:14;57.87;;;36.43;;
11346;SDS011;5728;42.722;23.258;2022-11-15T13:31:43;78.93;;;41.40;;
11346;SDS011;5728;42.722;23.258;2022-11-15T13:34:16;64.40;;;39.83;;
11346;SDS011;5728;42.722;23.258;2022-11-15T13:36:49;66.57;;;37.87;;
11346;SDS011;5728;42.722;23.258;2022-11-15T13:39:23;69.47;;;38.77;;
11346;SDS011;5728;42.722;23.258;2022-11-15T13:41:53;71.53;;;38.20;;
11346;SDS011;5728;42.722;23.258;2022-11-15T13:44:23;69.07;;;39.37;;
11346;SDS011;5728;42.722;23.258;2022-11-15T13:47:02;82.23;;;44.93;;
11346;SDS011;5728;42.722;23.258;2022-11-15T13:49:31;86.73;;;46.27;;
11346;SDS011;5728;42.722;23.258;2022-11-15T13:52:00;78.70;;;44.93;;
11346;SDS011;5728;42.722;23.258;2022-11-15T13:54:31;72.67;;;40.93;;
11346;SDS011;5728;42.722;23.258;2022-11-15T13:57:02;74.43;;;37.93;;
11346;SDS011;5728;42.722;23.258;2022-11-15T13:59:31;74.43;;;39.80;;
11346;SDS011;5728;42.722;23.258;2022-11-15T14:02:01;68.87;;;38.37;;
11346;SDS011;5728;42.722;23.258;2022-11-15T14:04:37;73.23;;;41.33;;
11346;SDS011;5728;42.722;23.258;2022-11-15T14:07:15;69.40;;;38.87;;
11346;SDS011;5728;42.722;23.258;2022-11-15T14:09:43;60.57;;;37.20;;
11346;SDS011;5728;42.722;23.258;2022-11-15T14:12:22;62.20;;;36.97;;
11346;SDS011;5728;42.722;23.258;2022-11-15T14:14:54;60.93;;;35.70;;
11346;SDS011;5728;42.722;23.258;2022-11-15T14:17:32;60.07;;;33.07;;
11346;SDS011;5728;42.722;23.258;2022-11-15T14:20:01;60.53;;;33.47;;
11346;SDS011;5728;42.722;23.258;2022-11-15T14:22:52;59.30;;;33.43;;
11346;SDS011;5728;42.722;23.258;2022-11-15T14:25:19;61.07;;;33.97;;
11346;SDS011;5728;42.722;23.258;2022-11-15T14:30:41;68.27;;;35.13;;
11346;SDS011;5728;42.722;23.258;2022-11-15T14:33:18;70.73;;;35.20;;
11346;SDS011;5728;42.722;23.258;2022-11-15T14:35:47;55.60;;;33.87;;
11346;SDS011;5728;42.722;23.258;2022-11-15T14:38:15;59.60;;;36.30;;
11346;SDS011;5728;42.722;23.258;2022-11-15T14:40:42;64.43;;;36.87;;
11346;SDS011;5728;42.722;23.258;2022-11-15T14:43:10;62.13;;;35.83;;
11346;SDS011;5728;42.722;23.258;2022-11-15T14:45:37;72.77;;;37.03;;
11346;SDS011;5728;42.722;23.258;2022-11-15T14:48:05;66.70;;;34.47;;
11346;SDS011;5728;42.722;23.258;2022-11-15T14:50:32;60.97;;;33.83;;
11346;SDS011;5728;42.722;23.258;2022-11-15T14:53:00;66.53;;;37.23;;
11346;SDS011;5728;42.722;23.258;2022-11-15T14:55:29;61.07;;;35.67;;
11346;SDS011;5728;42.722;23.258;2022-11-15T14:57:59;69.90;;;37.73;;
11346;SDS011;5728;42.722;23.258;2022-11-15T15:00:27;64.60;;;38.40;;
11346;SDS011;5728;42.722;23.258;2022-11-15T15:02:54;73.13;;;40.07;;
11346;SDS011;5728;42.722;23.258;2022-11-15T15:05:22;73.37;;;39.83;;
11346;SDS011;5728;42.722;23.258;2022-11-15T15:07:50;74.03;;;40.73;;
11346;SDS011;5728;42.722;23.258;2022-11-15T15:10:18;79.57;;;39.17;;
11346;SDS011;5728;42.722;23.258;2022-11-15T15:12:47;66.13;;;38.10;;
11346;SDS011;5728;42.722;23.258;2022-11-15T15:15:15;69.80;;;38.37;;
11346;SDS011;5728;42.722;23.258;2022-11-15T15:17:43;66.63;;;37.10;;
11346;SDS011;5728;42.722;23.258;2022-11-15T15:20:10;69.77;;;35.33;;
11346;SDS011;5728;42.722;23.258;2022-11-15T15:22:37;61.57;;;35.40;;
11346;SDS011;5728;42.722;23.258;2022-11-15T15:25:14;64.10;;;36.33;;
11346;SDS011;5728;42.722;23.258;2022-11-15T15:27:48;65.43;;;37.43;;
11346;SDS011;5728;42.722;23.258;2022-11-15T15:30:15;77.67;;;39.83;;
11346;SDS011;5728;42.722;23.258;2022-11-15T15:32:43;65.30;;;36.07;;
11346;SDS011;5728;42.722;23.258;2022-11-15T15:35:11;64.70;;;36.67;;
11346;SDS011;5728;42.722;23.258;2022-11-15T15:37:39;62.90;;;34.67;;
11346;SDS011;5728;42.722;23.258;2022-11-15T15:40:10;59.43;;;36.27;;
11346;SDS011;5728;42.722;23.258;2022-11-15T15:42:40;71.53;;;39.80;;
11346;SDS011;5728;42.722;23.258;2022-11-15T15:45:09;73.23;;;39.20;;
11346;SDS011;5728;42.722;23.258;2022-11-15T15:47:36;71.90;;;39.20;;
11346;SDS011;5728;42.722;23.258;2022-11-15T15:50:04;75.30;;;39.73;;
11346;SDS011;5728;42.722;23.258;2022-11-15T15:52:43;80.33;;;43.60;;
11346;SDS011;5728;42.722;23.258;2022-11-15T15:55:10;74.93;;;41.33;;
11346;SDS011;5728;42.722;23.258;2022-11-15T15:57:40;74.67;;;42.87;;
11346;SDS011;5728;42.722;23.258;2022-11-15T16:00:09;87.40;;;42.27;;
11346;SDS011;5728;42.722;23.258;2022-11-15T16:02:37;80.07;;;42.73;;
11346;SDS011;5728;42.722;23.258;2022-11-15T16:05:04;93.43;;;42.87;;
11346;SDS011;5728;42.722;23.258;2022-11-15T16:07:31;79.00;;;41.27;;
11346;SDS011;5728;42.722;23.258;2022-11-15T16:09:58;69.17;;;38.83;;
11346;SDS011;5728;42.722;23.258;2022-11-15T16:12:29;69.37;;;38.87;;
11346;SDS011;5728;42.722;23.258;2022-11-15T16:14:56;71.77;;;38.83;;
11346;SDS011;5728;42.722;23.258;2022-11-15T16:17:27;72.33;;;37.67;;
11346;SDS011;5728;42.722;23.258;2022-11-15T16:19:58;65.60;;;38.03;;
11346;SDS011;5728;42.722;23.258;2022-11-15T16:22:24;70.00;;;38.47;;
11346;SDS011;5728;42.722;23.258;2022-11-15T16:24:51;114.93;;;61.57;;
11346;SDS011;5728;42.722;23.258;2022-11-15T16:27:19;125.40;;;58.10;;
11346;SDS011;5728;42.722;23.258;2022-11-15T16:29:47;130.23;;;64.10;;
11346;SDS011;5728;42.722;23.258;2022-11-15T16:32:14;84.37;;;45.27;;
11346;SDS011;5728;42.722;23.258;2022-11-15T16:34:44;82.07;;;41.97;;
11346;SDS011;5728;42.722;23.258;2022-11-15T16:37:13;89.63;;;48.07;;
11346;SDS011;5728;42.722;23.258;2022-11-15T16:39:48;90.70;;;46.20;;
11346;SDS011;5728;42.722;23.258;2022-11-15T16:42:15;92.50;;;47.83;;
11346;SDS011;5728;42.722;23.258;2022-11-15T16:44:41;75.03;;;41.10;;
11346;SDS011;5728;42.722;23.258;2022-11-15T16:47:11;81.27;;;40.20;;
11346;SDS011;5728;42.722;23.258;2022-11-15T16:49:42;77.90;;;41.03;;
11346;SDS011;5728;42.722;23.258;2022-11-15T16:52:11;80.70;;;42.77;;
11346;SDS011;5728;42.722;23.258;2022-11-15T16:54:38;83.77;;;43.27;;
11346;SDS011;5728;42.722;23.258;2022-11-15T16:57:05;139.60;;;66.20;;
11346;SDS011;5728;42.722;23.258;2022-11-15T16:59:31;80.53;;;43.37;;